sensor_id;sensor_type;location;lat;lon;timestamp;temperature;humidity
580;DHT22;276;48.392;9.950;2023-09-19T00:00:42;19.20;99.90
580;DHT22;276;48.392;9.950;2023-09-19T00:03:09;19.20;99.90
580;DHT22;276;48.392;9.950;2023-09-19T00:05:36;19.20;99.90
580;DHT22;276;48.392;9.950;2023-09-19T00:08:04;19.20;99.90
580;DHT22;276;48.392;9.950;2023-09-19T00:10:30;19.20;99.90
580;DHT22;276;48.392;9.950;2023-09-19T00:13:03;19.30;99.90
580;DHT22;276;48.392;9.950;2023-09-19T00:15:37;19.30;99.90
580;DHT22;276;48.392;9.950;2023-09-19T00:18:06;19.30;99.90
580;DHT22;276;48.392;9.950;2023-09-19T00:20:32;19.30;99.90
580;DHT22;276;48.392;9.950;2023-09-19T00:23:00;19.30;99.90
580;DHT22;276;48.392;9.950;2023-09-19T00:25:34;19.30;99.90
580;DHT22;276;48.392;9.950;2023-09-19T00:28:08;19.20;99.90
580;DHT22;276;48.392;9.950;2023-09-19T00:30:36;19.10;99.90
580;DHT22;276;48.392;9.950;2023-09-19T00:33:04;19.00;99.90
580;DHT22;276;48.392;9.950;2023-09-19T00:35:32;19.00;99.90
580;DHT22;276;48.392;9.950;2023-09-19T00:37:58;18.90;99.90
580;DHT22;276;48.392;9.950;2023-09-19T00:40:28;18.90;99.90
580;DHT22;276;48.392;9.950;2023-09-19T00:42:58;18.90;99.90
580;DHT22;276;48.392;9.950;2023-09-19T00:45:26;18.90;99.90
580;DHT22;276;48.392;9.950;2023-09-19T00:47:53;18.90;99.90
580;DHT22;276;48.392;9.950;2023-09-19T00:50:22;18.90;99.90
580;DHT22;276;48.392;9.950;2023-09-19T00:52:50;18.90;99.90
580;DHT22;276;48.392;9.950;2023-09-19T00:55:16;19.00;99.90
580;DHT22;276;48.392;9.950;2023-09-19T00:57:45;19.00;99.90
580;DHT22;276;48.392;9.950;2023-09-19T01:00:12;19.00;99.90
580;DHT22;276;48.392;9.950;2023-09-19T01:02:41;19.00;99.90
580;DHT22;276;48.392;9.950;2023-09-19T01:05:09;19.00;99.90
580;DHT22;276;48.392;9.950;2023-09-19T01:07:35;19.00;99.90
580;DHT22;276;48.392;9.950;2023-09-19T01:10:06;19.00;99.90
580;DHT22;276;48.392;9.950;2023-09-19T01:17:51;19.00;99.90
580;DHT22;276;48.392;9.950;2023-09-19T01:26:30;18.90;99.90
580;DHT22;276;48.392;9.950;2023-09-19T01:31:57;19.00;99.90
580;DHT22;276;48.392;9.950;2023-09-19T01:34:26;19.00;99.90
580;DHT22;276;48.392;9.950;2023-09-19T01:36:54;19.00;99.90
580;DHT22;276;48.392;9.950;2023-09-19T01:39:22;19.00;99.90
580;DHT22;276;48.392;9.950;2023-09-19T01:42:12;19.00;99.90
580;DHT22;276;48.392;9.950;2023-09-19T01:47:52;19.00;99.90
580;DHT22;276;48.392;9.950;2023-09-19T01:53:33;19.00;99.90
580;DHT22;276;48.392;9.950;2023-09-19T01:55:59;18.90;99.90
580;DHT22;276;48.392;9.950;2023-09-19T02:00:58;18.80;99.90
580;DHT22;276;48.392;9.950;2023-09-19T02:03:26;18.70;99.90
580;DHT22;276;48.392;9.950;2023-09-19T02:05:57;18.70;99.90
580;DHT22;276;48.392;9.950;2023-09-19T02:08:26;18.70;99.90
580;DHT22;276;48.392;9.950;2023-09-19T02:10:53;18.60;99.90
580;DHT22;276;48.392;9.950;2023-09-19T02:13:20;18.60;99.90
580;DHT22;276;48.392;9.950;2023-09-19T02:15:48;18.60;99.90
580;DHT22;276;48.392;9.950;2023-09-19T02:18:14;18.60;99.90
580;DHT22;276;48.392;9.950;2023-09-19T02:20:43;18.60;99.90
580;DHT22;276;48.392;9.950;2023-09-19T02:23:09;18.60;99.90
580;DHT22;276;48.392;9.950;2023-09-19T02:25:35;18.50;99.90
580;DHT22;276;48.392;9.950;2023-09-19T02:28:01;18.50;99.90
580;DHT22;276;48.392;9.950;2023-09-19T02:30:31;18.50;99.90
580;DHT22;276;48.392;9.950;2023-09-19T02:33:01;18.40;99.90
580;DHT22;276;48.392;9.950;2023-09-19T02:35:27;18.40;99.90
580;DHT22;276;48.392;9.950;2023-09-19T02:37:55;18.40;99.90
580;DHT22;276;48.392;9.950;2023-09-19T02:40:23;18.40;99.90
580;DHT22;276;48.392;9.950;2023-09-19T02:42:53;18.40;99.90
580;DHT22;276;48.392;9.950;2023-09-19T02:45:20;18.40;99.90
580;DHT22;276;48.392;9.950;2023-09-19T02:47:46;18.40;99.90
580;DHT22;276;48.392;9.950;2023-09-19T02:50:13;18.30;99.90
580;DHT22;276;48.392;9.950;2023-09-19T02:52:42;18.30;99.90
580;DHT22;276;48.392;9.950;2023-09-19T02:55:14;18.30;99.90
580;DHT22;276;48.392;9.950;2023-09-19T02:57:46;18.40;99.90
580;DHT22;276;48.392;9.950;2023-09-19T03:00:12;18.30;99.90
580;DHT22;276;48.392;9.950;2023-09-19T03:02:38;18.30;99.90
580;DHT22;276;48.392;9.950;2023-09-19T03:05:07;18.30;99.90
580;DHT22;276;48.392;9.950;2023-09-19T03:07:33;18.30;99.90
580;DHT22;276;48.392;9.950;2023-09-19T03:09:59;18.30;99.90
580;DHT22;276;48.392;9.950;2023-09-19T03:12:25;18.30;99.90
580;DHT22;276;48.392;9.950;2023-09-19T03:14:58;18.30;99.90
580;DHT22;276;48.392;9.950;2023-09-19T03:17:24;18.20;99.90
580;DHT22;276;48.392;9.950;2023-09-19T03:19:52;18.20;99.90
580;DHT22;276;48.392;9.950;2023-09-19T03:22:19;18.10;99.90
580;DHT22;276;48.392;9.950;2023-09-19T03:24:45;18.10;99.90
580;DHT22;276;48.392;9.950;2023-09-19T03:27:12;18.10;99.90
580;DHT22;276;48.392;9.950;2023-09-19T03:29:43;18.10;99.90
580;DHT22;276;48.392;9.950;2023-09-19T03:32:09;18.10;99.90
580;DHT22;276;48.392;9.950;2023-09-19T03:34:40;18.10;99.90
580;DHT22;276;48.392;9.950;2023-09-19T03:37:08;18.00;99.90
580;DHT22;276;48.392;9.950;2023-09-19T03:39:34;18.00;99.90
580;DHT22;276;48.392;9.950;2023-09-19T03:42:01;18.00;99.90
580;DHT22;276;48.392;9.950;2023-09-19T03:44:26;18.00;99.90
580;DHT22;276;48.392;9.950;2023-09-19T03:46:52;18.00;99.90
580;DHT22;276;48.392;9.950;2023-09-19T03:49:17;18.00;99.90
580;DHT22;276;48.392;9.950;2023-09-19T03:51:44;17.90;99.90
580;DHT22;276;48.392;9.950;2023-09-19T03:54:10;17.90;99.90
580;DHT22;276;48.392;9.950;2023-09-19T03:56:38;18.00;99.90
580;DHT22;276;48.392;9.950;2023-09-19T03:59:03;18.00;99.90
580;DHT22;276;48.392;9.950;2023-09-19T04:01:29;17.90;99.90
580;DHT22;276;48.392;9.950;2023-09-19T04:03:57;17.90;99.90
580;DHT22;276;48.392;9.950;2023-09-19T04:06:24;17.90;99.90
580;DHT22;276;48.392;9.950;2023-09-19T04:08:52;17.90;99.90
580;DHT22;276;48.392;9.950;2023-09-19T04:11:17;17.90;99.90
580;DHT22;276;48.392;9.950;2023-09-19T04:13:43;17.80;99.90
580;DHT22;276;48.392;9.950;2023-09-19T04:16:09;17.90;99.90
580;DHT22;276;48.392;9.950;2023-09-19T04:18:35;17.90;99.90
580;DHT22;276;48.392;9.950;2023-09-19T04:21:03;17.90;99.90
580;DHT22;276;48.392;9.950;2023-09-19T04:23:33;17.90;99.90
580;DHT22;276;48.392;9.950;2023-09-19T04:25:58;17.90;99.90
580;DHT22;276;48.392;9.950;2023-09-19T04:28:24;17.90;99.90
580;DHT22;276;48.392;9.950;2023-09-19T04:30:50;17.90;99.90
580;DHT22;276;48.392;9.950;2023-09-19T04:33:15;17.90;99.90
580;DHT22;276;48.392;9.950;2023-09-19T04:35:41;18.00;99.90
580;DHT22;276;48.392;9.950;2023-09-19T04:38:08;18.00;99.90
580;DHT22;276;48.392;9.950;2023-09-19T04:40:33;18.00;99.90
580;DHT22;276;48.392;9.950;2023-09-19T04:43:00;18.00;99.90
580;DHT22;276;48.392;9.950;2023-09-19T04:45:27;18.00;99.90
580;DHT22;276;48.392;9.950;2023-09-19T04:47:54;18.00;99.90
580;DHT22;276;48.392;9.950;2023-09-19T04:50:20;18.00;99.90
580;DHT22;276;48.392;9.950;2023-09-19T04:52:51;18.00;99.90
580;DHT22;276;48.392;9.950;2023-09-19T04:55:22;18.10;99.90
580;DHT22;276;48.392;9.950;2023-09-19T04:57:49;18.10;99.90
580;DHT22;276;48.392;9.950;2023-09-19T05:00:17;18.20;99.90
580;DHT22;276;48.392;9.950;2023-09-19T05:02:45;18.20;99.90
580;DHT22;276;48.392;9.950;2023-09-19T05:05:11;18.20;99.90
580;DHT22;276;48.392;9.950;2023-09-19T05:07:40;18.20;99.90
580;DHT22;276;48.392;9.950;2023-09-19T05:10:06;18.20;99.90
580;DHT22;276;48.392;9.950;2023-09-19T05:12:36;18.30;99.90
580;DHT22;276;48.392;9.950;2023-09-19T05:15:05;18.30;99.90
580;DHT22;276;48.392;9.950;2023-09-19T05:17:33;18.30;99.90
580;DHT22;276;48.392;9.950;2023-09-19T05:20:02;18.40;99.90
580;DHT22;276;48.392;9.950;2023-09-19T05:22:41;18.40;99.90
580;DHT22;276;48.392;9.950;2023-09-19T05:25:09;18.40;99.90
580;DHT22;276;48.392;9.950;2023-09-19T05:27:36;18.30;99.90
580;DHT22;276;48.392;9.950;2023-09-19T05:30:06;18.30;99.90
580;DHT22;276;48.392;9.950;2023-09-19T05:32:32;18.30;99.90
580;DHT22;276;48.392;9.950;2023-09-19T05:34:57;18.30;99.90
580;DHT22;276;48.392;9.950;2023-09-19T05:37:25;18.30;99.90
580;DHT22;276;48.392;9.950;2023-09-19T05:39:51;18.40;99.90
580;DHT22;276;48.392;9.950;2023-09-19T05:42:21;18.40;99.90
580;DHT22;276;48.392;9.950;2023-09-19T05:44:47;18.40;99.90
580;DHT22;276;48.392;9.950;2023-09-19T05:47:12;18.40;99.90
580;DHT22;276;48.392;9.950;2023-09-19T05:49:38;18.40;99.90
580;DHT22;276;48.392;9.950;2023-09-19T05:52:06;18.40;99.90
580;DHT22;276;48.392;9.950;2023-09-19T05:54:32;18.50;99.90
580;DHT22;276;48.392;9.950;2023-09-19T05:57:02;18.50;99.90
580;DHT22;276;48.392;9.950;2023-09-19T05:59:28;18.50;99.90
580;DHT22;276;48.392;9.950;2023-09-19T06:01:53;18.60;99.90
580;DHT22;276;48.392;9.950;2023-09-19T06:04:19;18.50;99.90
580;DHT22;276;48.392;9.950;2023-09-19T06:06:45;18.60;99.90
580;DHT22;276;48.392;9.950;2023-09-19T06:09:14;18.60;99.90
580;DHT22;276;48.392;9.950;2023-09-19T06:11:43;18.50;99.90
580;DHT22;276;48.392;9.950;2023-09-19T06:14:10;18.60;99.90
580;DHT22;276;48.392;9.950;2023-09-19T06:16:37;18.60;99.90
580;DHT22;276;48.392;9.950;2023-09-19T06:19:03;18.50;99.90
580;DHT22;276;48.392;9.950;2023-09-19T06:21:32;18.60;99.90
580;DHT22;276;48.392;9.950;2023-09-19T06:24:00;18.60;99.90
580;DHT22;276;48.392;9.950;2023-09-19T06:26:28;18.70;99.90
580;DHT22;276;48.392;9.950;2023-09-19T06:28:54;18.70;99.90
580;DHT22;276;48.392;9.950;2023-09-19T06:31:21;18.70;99.90
580;DHT22;276;48.392;9.950;2023-09-19T06:33:48;18.70;99.90
580;DHT22;276;48.392;9.950;2023-09-19T06:36:14;18.70;99.90
580;DHT22;276;48.392;9.950;2023-09-19T06:38:40;18.70;99.90
580;DHT22;276;48.392;9.950;2023-09-19T06:41:08;18.70;99.90
580;DHT22;276;48.392;9.950;2023-09-19T06:43:35;18.70;99.90
580;DHT22;276;48.392;9.950;2023-09-19T06:46:01;18.70;99.90
580;DHT22;276;48.392;9.950;2023-09-19T06:48:27;18.70;99.90
580;DHT22;276;48.392;9.950;2023-09-19T06:50:59;18.70;99.90
580;DHT22;276;48.392;9.950;2023-09-19T06:53:33;18.80;99.90
580;DHT22;276;48.392;9.950;2023-09-19T06:56:01;18.80;99.90
580;DHT22;276;48.392;9.950;2023-09-19T06:58:27;18.80;99.90
580;DHT22;276;48.392;9.950;2023-09-19T07:00:52;18.90;99.90
580;DHT22;276;48.392;9.950;2023-09-19T07:03:19;18.90;99.90
580;DHT22;276;48.392;9.950;2023-09-19T07:05:47;18.90;99.90
580;DHT22;276;48.392;9.950;2023-09-19T07:08:13;18.90;99.90
580;DHT22;276;48.392;9.950;2023-09-19T07:10:41;19.00;99.90
580;DHT22;276;48.392;9.950;2023-09-19T07:13:10;19.20;99.90
580;DHT22;276;48.392;9.950;2023-09-19T07:15:37;19.20;99.90
580;DHT22;276;48.392;9.950;2023-09-19T07:18:07;19.30;99.90
580;DHT22;276;48.392;9.950;2023-09-19T07:20:34;19.30;99.90
580;DHT22;276;48.392;9.950;2023-09-19T07:23:00;19.30;99.90
580;DHT22;276;48.392;9.950;2023-09-19T07:25:27;19.30;99.90
580;DHT22;276;48.392;9.950;2023-09-19T07:27:55;19.40;99.90
580;DHT22;276;48.392;9.950;2023-09-19T07:30:21;19.30;99.90
580;DHT22;276;48.392;9.950;2023-09-19T07:32:51;19.40;99.90
580;DHT22;276;48.392;9.950;2023-09-19T07:35:18;19.30;99.90
580;DHT22;276;48.392;9.950;2023-09-19T07:37:49;19.30;99.90
580;DHT22;276;48.392;9.950;2023-09-19T07:40:15;19.40;99.90
580;DHT22;276;48.392;9.950;2023-09-19T07:42:44;19.40;99.90
580;DHT22;276;48.392;9.950;2023-09-19T07:45:12;19.40;99.90
580;DHT22;276;48.392;9.950;2023-09-19T07:47:49;19.50;99.90
580;DHT22;276;48.392;9.950;2023-09-19T07:50:15;19.60;99.90
580;DHT22;276;48.392;9.950;2023-09-19T07:52:42;19.60;99.90
580;DHT22;276;48.392;9.950;2023-09-19T07:55:10;19.60;99.90
580;DHT22;276;48.392;9.950;2023-09-19T07:57:42;19.70;99.90
580;DHT22;276;48.392;9.950;2023-09-19T08:00:09;19.80;99.90
580;DHT22;276;48.392;9.950;2023-09-19T08:02:41;19.80;99.90
580;DHT22;276;48.392;9.950;2023-09-19T08:05:12;19.80;99.90
580;DHT22;276;48.392;9.950;2023-09-19T08:07:43;19.90;99.90
580;DHT22;276;48.392;9.950;2023-09-19T08:10:12;19.90;99.90
580;DHT22;276;48.392;9.950;2023-09-19T08:12:42;20.00;99.90
580;DHT22;276;48.392;9.950;2023-09-19T08:15:15;20.00;99.90
580;DHT22;276;48.392;9.950;2023-09-19T08:17:41;20.10;99.90
580;DHT22;276;48.392;9.950;2023-09-19T08:20:08;20.20;99.90
580;DHT22;276;48.392;9.950;2023-09-19T08:22:48;20.30;99.90
580;DHT22;276;48.392;9.950;2023-09-19T08:25:15;20.40;99.90
580;DHT22;276;48.392;9.950;2023-09-19T08:27:46;20.50;99.90
580;DHT22;276;48.392;9.950;2023-09-19T08:30:15;20.60;99.90
580;DHT22;276;48.392;9.950;2023-09-19T08:32:41;20.70;99.90
580;DHT22;276;48.392;9.950;2023-09-19T08:35:08;20.90;99.90
580;DHT22;276;48.392;9.950;2023-09-19T08:37:36;20.90;99.90
580;DHT22;276;48.392;9.950;2023-09-19T08:40:02;21.00;99.90
580;DHT22;276;48.392;9.950;2023-09-19T08:42:28;21.10;99.90
580;DHT22;276;48.392;9.950;2023-09-19T08:44:55;21.20;99.90
580;DHT22;276;48.392;9.950;2023-09-19T08:47:40;21.30;99.90
580;DHT22;276;48.392;9.950;2023-09-19T08:50:27;21.30;99.90
580;DHT22;276;48.392;9.950;2023-09-19T08:52:55;21.30;99.90
580;DHT22;276;48.392;9.950;2023-09-19T08:55:29;21.30;99.90
580;DHT22;276;48.392;9.950;2023-09-19T08:58:03;21.30;99.90
580;DHT22;276;48.392;9.950;2023-09-19T09:00:30;21.40;99.90
580;DHT22;276;48.392;9.950;2023-09-19T09:02:59;21.40;99.90
580;DHT22;276;48.392;9.950;2023-09-19T09:05:26;21.30;99.90
580;DHT22;276;48.392;9.950;2023-09-19T09:07:53;21.30;99.90
580;DHT22;276;48.392;9.950;2023-09-19T09:10:23;21.30;99.90
580;DHT22;276;48.392;9.950;2023-09-19T09:12:52;21.30;99.90
580;DHT22;276;48.392;9.950;2023-09-19T09:15:21;21.30;99.90
580;DHT22;276;48.392;9.950;2023-09-19T09:17:49;21.30;99.90
580;DHT22;276;48.392;9.950;2023-09-19T09:20:19;21.30;99.90
580;DHT22;276;48.392;9.950;2023-09-19T09:22:51;21.30;99.90
580;DHT22;276;48.392;9.950;2023-09-19T09:25:20;21.20;99.90
580;DHT22;276;48.392;9.950;2023-09-19T09:28:01;21.20;99.90
580;DHT22;276;48.392;9.950;2023-09-19T09:30:36;21.20;99.90
580;DHT22;276;48.392;9.950;2023-09-19T09:33:13;21.10;99.90
580;DHT22;276;48.392;9.950;2023-09-19T09:35:53;21.10;99.90
580;DHT22;276;48.392;9.950;2023-09-19T09:38:29;21.00;99.90
580;DHT22;276;48.392;9.950;2023-09-19T09:40:57;21.00;99.90
580;DHT22;276;48.392;9.950;2023-09-19T09:51:41;20.60;99.90
580;DHT22;276;48.392;9.950;2023-09-19T09:54:13;20.60;99.90
580;DHT22;276;48.392;9.950;2023-09-19T09:56:56;20.70;99.90
580;DHT22;276;48.392;9.950;2023-09-19T09:59:49;20.80;99.90
580;DHT22;276;48.392;9.950;2023-09-19T10:02:17;20.80;99.90
580;DHT22;276;48.392;9.950;2023-09-19T10:04:55;20.90;99.90
580;DHT22;276;48.392;9.950;2023-09-19T10:07:40;21.00;99.90
580;DHT22;276;48.392;9.950;2023-09-19T10:10:12;21.10;99.90
580;DHT22;276;48.392;9.950;2023-09-19T10:12:46;21.20;99.90
580;DHT22;276;48.392;9.950;2023-09-19T10:15:17;21.40;99.90
580;DHT22;276;48.392;9.950;2023-09-19T10:17:46;21.60;99.90
580;DHT22;276;48.392;9.950;2023-09-19T10:20:14;21.90;99.90
580;DHT22;276;48.392;9.950;2023-09-19T10:23:00;22.20;99.90
580;DHT22;276;48.392;9.950;2023-09-19T10:25:29;22.50;99.90
580;DHT22;276;48.392;9.950;2023-09-19T10:28:00;22.60;99.90
580;DHT22;276;48.392;9.950;2023-09-19T10:30:31;22.80;99.90
580;DHT22;276;48.392;9.950;2023-09-19T10:33:03;23.00;99.90
580;DHT22;276;48.392;9.950;2023-09-19T10:35:29;23.10;99.90
580;DHT22;276;48.392;9.950;2023-09-19T10:37:57;23.20;99.40
580;DHT22;276;48.392;9.950;2023-09-19T10:40:27;23.30;99.20
580;DHT22;276;48.392;9.950;2023-09-19T10:43:03;23.40;99.00
580;DHT22;276;48.392;9.950;2023-09-19T10:45:34;23.60;98.90
580;DHT22;276;48.392;9.950;2023-09-19T10:48:02;23.70;98.30
580;DHT22;276;48.392;9.950;2023-09-19T10:50:35;23.80;97.60
580;DHT22;276;48.392;9.950;2023-09-19T10:53:04;23.80;97.40
580;DHT22;276;48.392;9.950;2023-09-19T10:55:33;23.80;98.00
580;DHT22;276;48.392;9.950;2023-09-19T10:58:01;24.00;98.20
580;DHT22;276;48.392;9.950;2023-09-19T11:00:32;24.10;97.40
580;DHT22;276;48.392;9.950;2023-09-19T11:06:08;24.30;96.40
580;DHT22;276;48.392;9.950;2023-09-19T11:11:52;24.40;94.60
580;DHT22;276;48.392;9.950;2023-09-19T11:30:41;24.00;93.50
580;DHT22;276;48.392;9.950;2023-09-19T11:33:30;24.00;93.80
580;DHT22;276;48.392;9.950;2023-09-19T11:36:02;24.00;94.40
580;DHT22;276;48.392;9.950;2023-09-19T11:43:54;24.10;94.50
580;DHT22;276;48.392;9.950;2023-09-19T11:49:26;24.40;94.90
580;DHT22;276;48.392;9.950;2023-09-19T11:51:56;24.60;94.70
580;DHT22;276;48.392;9.950;2023-09-19T11:54:28;24.60;93.90
580;DHT22;276;48.392;9.950;2023-09-19T11:56:57;24.60;92.30
580;DHT22;276;48.392;9.950;2023-09-19T11:59:27;24.60;91.30
580;DHT22;276;48.392;9.950;2023-09-19T12:02:04;24.40;91.10
580;DHT22;276;48.392;9.950;2023-09-19T12:04:37;24.30;90.90
580;DHT22;276;48.392;9.950;2023-09-19T12:07:08;24.30;91.90
580;DHT22;276;48.392;9.950;2023-09-19T12:09:41;24.40;92.80
580;DHT22;276;48.392;9.950;2023-09-19T12:12:28;24.60;93.50
580;DHT22;276;48.392;9.950;2023-09-19T12:14:56;24.80;93.10
580;DHT22;276;48.392;9.950;2023-09-19T12:17:41;24.90;93.00
580;DHT22;276;48.392;9.950;2023-09-19T12:20:08;24.90;92.50
580;DHT22;276;48.392;9.950;2023-09-19T12:22:45;25.00;92.10
580;DHT22;276;48.392;9.950;2023-09-19T12:25:15;25.00;91.80
580;DHT22;276;48.392;9.950;2023-09-19T12:27:51;25.00;91.80
580;DHT22;276;48.392;9.950;2023-09-19T12:30:18;25.10;92.00
580;DHT22;276;48.392;9.950;2023-09-19T12:32:45;25.10;91.40
580;DHT22;276;48.392;9.950;2023-09-19T12:35:30;25.10;91.50
580;DHT22;276;48.392;9.950;2023-09-19T12:38:00;25.10;91.40
580;DHT22;276;48.392;9.950;2023-09-19T12:40:26;25.10;91.20
580;DHT22;276;48.392;9.950;2023-09-19T12:42:59;25.10;90.50
580;DHT22;276;48.392;9.950;2023-09-19T12:45:26;25.10;89.80
580;DHT22;276;48.392;9.950;2023-09-19T12:48:18;25.10;90.40
580;DHT22;276;48.392;9.950;2023-09-19T12:51:09;25.00;90.20
580;DHT22;276;48.392;9.950;2023-09-19T12:56:15;24.90;89.00
580;DHT22;276;48.392;9.950;2023-09-19T12:58:59;25.00;89.50
580;DHT22;276;48.392;9.950;2023-09-19T13:01:31;24.90;89.00
580;DHT22;276;48.392;9.950;2023-09-19T13:04:18;24.80;87.60
580;DHT22;276;48.392;9.950;2023-09-19T13:06:49;24.70;86.30
580;DHT22;276;48.392;9.950;2023-09-19T13:09:16;24.60;87.20
580;DHT22;276;48.392;9.950;2023-09-19T13:11:48;24.40;84.30
580;DHT22;276;48.392;9.950;2023-09-19T13:14:23;24.30;85.50
580;DHT22;276;48.392;9.950;2023-09-19T13:17:08;24.20;86.90
580;DHT22;276;48.392;9.950;2023-09-19T13:19:50;24.30;87.90
580;DHT22;276;48.392;9.950;2023-09-19T13:22:40;24.30;87.10
580;DHT22;276;48.392;9.950;2023-09-19T13:25:16;24.30;86.90
580;DHT22;276;48.392;9.950;2023-09-19T13:27:51;24.20;87.00
580;DHT22;276;48.392;9.950;2023-09-19T13:30:23;24.20;87.70
580;DHT22;276;48.392;9.950;2023-09-19T13:33:03;24.10;87.40
580;DHT22;276;48.392;9.950;2023-09-19T13:35:32;24.10;88.30
580;DHT22;276;48.392;9.950;2023-09-19T13:37:58;24.00;87.50
580;DHT22;276;48.392;9.950;2023-09-19T13:40:24;24.00;87.90
580;DHT22;276;48.392;9.950;2023-09-19T13:43:00;23.90;88.60
580;DHT22;276;48.392;9.950;2023-09-19T13:45:26;23.90;89.40
580;DHT22;276;48.392;9.950;2023-09-19T13:47:54;24.00;89.40
580;DHT22;276;48.392;9.950;2023-09-19T13:50:20;23.90;88.80
580;DHT22;276;48.392;9.950;2023-09-19T13:52:50;24.00;89.00
580;DHT22;276;48.392;9.950;2023-09-19T13:55:20;23.90;88.80
580;DHT22;276;48.392;9.950;2023-09-19T13:57:49;23.90;89.00
580;DHT22;276;48.392;9.950;2023-09-19T14:00:24;23.90;89.40
580;DHT22;276;48.392;9.950;2023-09-19T14:02:50;23.80;88.60
580;DHT22;276;48.392;9.950;2023-09-19T14:05:16;23.80;89.50
580;DHT22;276;48.392;9.950;2023-09-19T14:07:43;23.80;90.10
580;DHT22;276;48.392;9.950;2023-09-19T14:10:10;23.80;90.40
580;DHT22;276;48.392;9.950;2023-09-19T14:12:39;23.80;89.90
580;DHT22;276;48.392;9.950;2023-09-19T14:15:09;23.80;90.00
580;DHT22;276;48.392;9.950;2023-09-19T14:17:35;23.70;90.00
580;DHT22;276;48.392;9.950;2023-09-19T14:20:03;23.70;90.50
580;DHT22;276;48.392;9.950;2023-09-19T14:22:31;23.60;90.60
580;DHT22;276;48.392;9.950;2023-09-19T14:24:59;23.60;90.90
580;DHT22;276;48.392;9.950;2023-09-19T14:27:25;23.50;91.20
580;DHT22;276;48.392;9.950;2023-09-19T14:29:50;23.60;91.00
580;DHT22;276;48.392;9.950;2023-09-19T14:32:19;23.60;90.50
580;DHT22;276;48.392;9.950;2023-09-19T14:34:47;23.60;90.50
580;DHT22;276;48.392;9.950;2023-09-19T14:37:12;23.60;90.60
580;DHT22;276;48.392;9.950;2023-09-19T14:39:38;23.40;90.40
580;DHT22;276;48.392;9.950;2023-09-19T14:42:05;23.30;91.10
580;DHT22;276;48.392;9.950;2023-09-19T14:44:30;23.20;90.70
580;DHT22;276;48.392;9.950;2023-09-19T14:46:56;23.10;91.10
580;DHT22;276;48.392;9.950;2023-09-19T14:49:26;23.00;90.90
580;DHT22;276;48.392;9.950;2023-09-19T14:51:52;23.00;91.20
580;DHT22;276;48.392;9.950;2023-09-19T14:54:17;23.10;90.90
580;DHT22;276;48.392;9.950;2023-09-19T14:56:44;23.10;91.10
580;DHT22;276;48.392;9.950;2023-09-19T14:59:10;23.20;91.30
580;DHT22;276;48.392;9.950;2023-09-19T15:01:41;23.20;91.10
580;DHT22;276;48.392;9.950;2023-09-19T15:04:09;23.10;90.40
580;DHT22;276;48.392;9.950;2023-09-19T15:06:37;23.00;90.60
580;DHT22;276;48.392;9.950;2023-09-19T15:09:03;22.90;91.00
580;DHT22;276;48.392;9.950;2023-09-19T15:11:30;23.00;91.20
580;DHT22;276;48.392;9.950;2023-09-19T15:13:56;23.00;91.40
580;DHT22;276;48.392;9.950;2023-09-19T15:16:26;23.00;91.30
580;DHT22;276;48.392;9.950;2023-09-19T15:18:52;23.00;91.20
580;DHT22;276;48.392;9.950;2023-09-19T15:21:18;23.00;91.30
580;DHT22;276;48.392;9.950;2023-09-19T15:23:50;23.00;91.20
580;DHT22;276;48.392;9.950;2023-09-19T15:26:16;23.00;90.50
580;DHT22;276;48.392;9.950;2023-09-19T15:28:45;23.00;90.70
580;DHT22;276;48.392;9.950;2023-09-19T15:31:12;23.00;90.90
580;DHT22;276;48.392;9.950;2023-09-19T15:33:40;23.00;91.10
580;DHT22;276;48.392;9.950;2023-09-19T15:36:07;22.90;91.30
580;DHT22;276;48.392;9.950;2023-09-19T15:41:38;22.90;91.00
580;DHT22;276;48.392;9.950;2023-09-19T15:44:07;22.90;91.10
580;DHT22;276;48.392;9.950;2023-09-19T15:46:35;22.80;91.10
580;DHT22;276;48.392;9.950;2023-09-19T15:49:02;22.80;91.40
580;DHT22;276;48.392;9.950;2023-09-19T15:51:28;22.80;91.60
580;DHT22;276;48.392;9.950;2023-09-19T15:53:55;22.80;91.70
580;DHT22;276;48.392;9.950;2023-09-19T15:56:25;22.80;91.80
580;DHT22;276;48.392;9.950;2023-09-19T15:58:54;22.80;91.90
580;DHT22;276;48.392;9.950;2023-09-19T16:01:20;22.80;91.80
580;DHT22;276;48.392;9.950;2023-09-19T16:03:51;22.80;91.90
580;DHT22;276;48.392;9.950;2023-09-19T16:06:27;22.70;92.10
580;DHT22;276;48.392;9.950;2023-09-19T16:08:58;22.70;92.90
580;DHT22;276;48.392;9.950;2023-09-19T16:11:27;22.60;93.30
580;DHT22;276;48.392;9.950;2023-09-19T16:13:58;22.60;93.60
580;DHT22;276;48.392;9.950;2023-09-19T16:16:25;22.50;93.80
580;DHT22;276;48.392;9.950;2023-09-19T16:18:56;22.50;94.00
580;DHT22;276;48.392;9.950;2023-09-19T16:21:26;22.40;94.30
580;DHT22;276;48.392;9.950;2023-09-19T16:23:53;22.40;94.40
580;DHT22;276;48.392;9.950;2023-09-19T16:26:20;22.40;94.80
580;DHT22;276;48.392;9.950;2023-09-19T16:28:47;22.30;95.10
580;DHT22;276;48.392;9.950;2023-09-19T16:31:15;22.30;95.40
580;DHT22;276;48.392;9.950;2023-09-19T16:33:44;22.20;95.60
580;DHT22;276;48.392;9.950;2023-09-19T16:36:19;22.20;95.80
580;DHT22;276;48.392;9.950;2023-09-19T16:38:47;22.10;96.10
580;DHT22;276;48.392;9.950;2023-09-19T16:41:13;22.10;96.20
580;DHT22;276;48.392;9.950;2023-09-19T16:43:40;22.10;96.30
580;DHT22;276;48.392;9.950;2023-09-19T16:46:08;22.10;96.50
580;DHT22;276;48.392;9.950;2023-09-19T16:48:40;22.10;96.60
580;DHT22;276;48.392;9.950;2023-09-19T16:51:08;22.10;96.80
580;DHT22;276;48.392;9.950;2023-09-19T16:53:35;22.10;96.90
580;DHT22;276;48.392;9.950;2023-09-19T16:56:09;22.10;97.00
580;DHT22;276;48.392;9.950;2023-09-19T16:58:41;22.10;97.10
580;DHT22;276;48.392;9.950;2023-09-19T17:01:08;22.00;97.20
580;DHT22;276;48.392;9.950;2023-09-19T17:03:40;22.00;97.20
580;DHT22;276;48.392;9.950;2023-09-19T17:06:11;22.00;97.30
580;DHT22;276;48.392;9.950;2023-09-19T17:08:40;22.00;97.50
580;DHT22;276;48.392;9.950;2023-09-19T17:11:08;22.00;97.70
580;DHT22;276;48.392;9.950;2023-09-19T17:13:35;21.90;97.80
580;DHT22;276;48.392;9.950;2023-09-19T17:16:13;21.90;97.90
580;DHT22;276;48.392;9.950;2023-09-19T17:18:43;21.90;98.00
580;DHT22;276;48.392;9.950;2023-09-19T17:21:11;21.90;98.10
580;DHT22;276;48.392;9.950;2023-09-19T17:23:38;21.90;98.20
580;DHT22;276;48.392;9.950;2023-09-19T17:26:06;21.90;98.30
580;DHT22;276;48.392;9.950;2023-09-19T17:28:36;21.90;98.50
580;DHT22;276;48.392;9.950;2023-09-19T17:31:08;21.90;98.70
580;DHT22;276;48.392;9.950;2023-09-19T17:33:33;21.90;98.80
580;DHT22;276;48.392;9.950;2023-09-19T17:36:12;21.90;99.00
580;DHT22;276;48.392;9.950;2023-09-19T17:38:42;21.80;99.30
580;DHT22;276;48.392;9.950;2023-09-19T17:41:08;21.80;99.50
580;DHT22;276;48.392;9.950;2023-09-19T17:43:35;21.80;99.80
580;DHT22;276;48.392;9.950;2023-09-19T17:46:11;21.70;99.90
580;DHT22;276;48.392;9.950;2023-09-19T17:48:43;21.60;99.90
580;DHT22;276;48.392;9.950;2023-09-19T17:51:13;21.50;99.90
580;DHT22;276;48.392;9.950;2023-09-19T17:53:42;21.50;99.90
580;DHT22;276;48.392;9.950;2023-09-19T17:56:10;21.50;99.90